sensor_id;sensor_type;location;lat;lon;timestamp;temperature;humidity
9730;DHT22;4904;49.152;11.004;2023-02-13T00:00:49;0.90;99.90
9730;DHT22;4904;49.152;11.004;2023-02-13T00:03:16;0.90;99.90
9730;DHT22;4904;49.152;11.004;2023-02-13T00:05:43;0.90;99.90
9730;DHT22;4904;49.152;11.004;2023-02-13T00:08:10;0.90;99.90
9730;DHT22;4904;49.152;11.004;2023-02-13T00:10:38;0.90;99.90
9730;DHT22;4904;49.152;11.004;2023-02-13T00:13:05;0.90;99.90
9730;DHT22;4904;49.152;11.004;2023-02-13T00:15:32;1.00;99.90
9730;DHT22;4904;49.152;11.004;2023-02-13T00:17:58;1.00;99.90
9730;DHT22;4904;49.152;11.004;2023-02-13T00:20:25;1.00;99.90
9730;DHT22;4904;49.152;11.004;2023-02-13T00:22:52;1.00;99.90
9730;DHT22;4904;49.152;11.004;2023-02-13T00:25:19;1.00;99.90
9730;DHT22;4904;49.152;11.004;2023-02-13T00:27:49;1.00;99.90
9730;DHT22;4904;49.152;11.004;2023-02-13T00:30:19;0.90;99.90
9730;DHT22;4904;49.152;11.004;2023-02-13T00:32:46;0.90;99.90
9730;DHT22;4904;49.152;11.004;2023-02-13T00:35:12;1.00;99.90
9730;DHT22;4904;49.152;11.004;2023-02-13T00:37:39;0.90;99.90
9730;DHT22;4904;49.152;11.004;2023-02-13T00:40:07;1.00;99.90
9730;DHT22;4904;49.152;11.004;2023-02-13T00:42:34;1.00;99.90
9730;DHT22;4904;49.152;11.004;2023-02-13T00:45:03;0.90;99.90
9730;DHT22;4904;49.152;11.004;2023-02-13T00:47:30;0.90;99.90
9730;DHT22;4904;49.152;11.004;2023-02-13T00:49:56;1.00;99.90
9730;DHT22;4904;49.152;11.004;2023-02-13T00:52:23;1.00;99.90
9730;DHT22;4904;49.152;11.004;2023-02-13T00:54:50;0.90;99.90
9730;DHT22;4904;49.152;11.004;2023-02-13T00:57:17;0.90;99.90
9730;DHT22;4904;49.152;11.004;2023-02-13T00:59:44;1.00;99.90
9730;DHT22;4904;49.152;11.004;2023-02-13T01:02:12;0.90;99.90
9730;DHT22;4904;49.152;11.004;2023-02-13T01:04:39;0.80;99.90
9730;DHT22;4904;49.152;11.004;2023-02-13T01:07:06;0.80;99.90
9730;DHT22;4904;49.152;11.004;2023-02-13T01:09:33;0.60;99.90
9730;DHT22;4904;49.152;11.004;2023-02-13T01:11:59;0.60;99.90
9730;DHT22;4904;49.152;11.004;2023-02-13T01:14:26;0.50;99.90
9730;DHT22;4904;49.152;11.004;2023-02-13T01:16:54;0.50;99.90
9730;DHT22;4904;49.152;11.004;2023-02-13T01:19:23;0.50;99.90
9730;DHT22;4904;49.152;11.004;2023-02-13T01:21:49;0.50;99.90
9730;DHT22;4904;49.152;11.004;2023-02-13T01:24:16;0.50;99.90
9730;DHT22;4904;49.152;11.004;2023-02-13T01:26:43;0.60;99.90
9730;DHT22;4904;49.152;11.004;2023-02-13T01:29:12;0.60;99.90
9730;DHT22;4904;49.152;11.004;2023-02-13T01:31:39;0.60;99.90
9730;DHT22;4904;49.152;11.004;2023-02-13T01:34:05;0.60;99.90
9730;DHT22;4904;49.152;11.004;2023-02-13T01:36:34;0.60;99.90
9730;DHT22;4904;49.152;11.004;2023-02-13T01:39:00;0.60;99.90
9730;DHT22;4904;49.152;11.004;2023-02-13T01:41:27;0.70;99.90
9730;DHT22;4904;49.152;11.004;2023-02-13T01:43:56;0.60;99.90
9730;DHT22;4904;49.152;11.004;2023-02-13T01:46:27;0.50;99.90
9730;DHT22;4904;49.152;11.004;2023-02-13T01:48:57;0.50;99.90
9730;DHT22;4904;49.152;11.004;2023-02-13T01:51:27;0.40;99.90
9730;DHT22;4904;49.152;11.004;2023-02-13T01:53:59;0.40;99.90
9730;DHT22;4904;49.152;11.004;2023-02-13T01:56:30;0.40;99.90
9730;DHT22;4904;49.152;11.004;2023-02-13T01:59:00;0.50;99.90
9730;DHT22;4904;49.152;11.004;2023-02-13T02:01:28;0.50;99.90
9730;DHT22;4904;49.152;11.004;2023-02-13T02:03:59;0.40;99.90
9730;DHT22;4904;49.152;11.004;2023-02-13T02:06:34;0.40;99.90
9730;DHT22;4904;49.152;11.004;2023-02-13T02:09:06;0.40;99.90
9730;DHT22;4904;49.152;11.004;2023-02-13T02:11:40;0.40;99.90
9730;DHT22;4904;49.152;11.004;2023-02-13T02:14:08;0.30;99.90
9730;DHT22;4904;49.152;11.004;2023-02-13T02:16:35;0.30;99.90
9730;DHT22;4904;49.152;11.004;2023-02-13T02:19:03;0.30;99.90
9730;DHT22;4904;49.152;11.004;2023-02-13T02:25:05;0.30;99.90
9730;DHT22;4904;49.152;11.004;2023-02-13T02:28:09;0.30;99.90
9730;DHT22;4904;49.152;11.004;2023-02-13T02:34:03;0.10;99.90
9730;DHT22;4904;49.152;11.004;2023-02-13T02:36:44;0.10;99.90
9730;DHT22;4904;49.152;11.004;2023-02-13T02:39:25;0.10;99.90
9730;DHT22;4904;49.152;11.004;2023-02-13T02:42:02;0.10;99.90
9730;DHT22;4904;49.152;11.004;2023-02-13T02:44:38;0.10;99.90
9730;DHT22;4904;49.152;11.004;2023-02-13T02:47:12;0.10;99.90
9730;DHT22;4904;49.152;11.004;2023-02-13T02:50:13;0.10;99.90
9730;DHT22;4904;49.152;11.004;2023-02-13T02:52:50;0.10;99.90
9730;DHT22;4904;49.152;11.004;2023-02-13T02:55:29;0.00;99.90
9730;DHT22;4904;49.152;11.004;2023-02-13T02:58:03;0.00;99.90
9730;DHT22;4904;49.152;11.004;2023-02-13T03:00:51;-0.10;99.90
9730;DHT22;4904;49.152;11.004;2023-02-13T03:03:36;-0.10;99.90
9730;DHT22;4904;49.152;11.004;2023-02-13T03:06:25;-0.10;99.90
9730;DHT22;4904;49.152;11.004;2023-02-13T03:08:56;-0.10;99.90
9730;DHT22;4904;49.152;11.004;2023-02-13T03:11:41;-0.20;99.90
9730;DHT22;4904;49.152;11.004;2023-02-13T03:14:27;-0.20;99.90
9730;DHT22;4904;49.152;11.004;2023-02-13T03:16:56;-0.20;99.90
9730;DHT22;4904;49.152;11.004;2023-02-13T03:19:50;-0.10;99.90
9730;DHT22;4904;49.152;11.004;2023-02-13T03:22:44;-0.20;99.90
9730;DHT22;4904;49.152;11.004;2023-02-13T03:25:19;-0.30;99.90
9730;DHT22;4904;49.152;11.004;2023-02-13T03:27:57;-0.40;99.90
9730;DHT22;4904;49.152;11.004;2023-02-13T03:30:51;-0.40;99.90
9730;DHT22;4904;49.152;11.004;2023-02-13T03:33:42;-0.50;99.90
9730;DHT22;4904;49.152;11.004;2023-02-13T03:36:16;-0.40;99.90
9730;DHT22;4904;49.152;11.004;2023-02-13T03:39:06;-0.40;99.90
9730;DHT22;4904;49.152;11.004;2023-02-13T03:41:38;-0.30;99.90
9730;DHT22;4904;49.152;11.004;2023-02-13T03:44:12;-0.30;99.90
9730;DHT22;4904;49.152;11.004;2023-02-13T03:46:45;-0.40;99.90
9730;DHT22;4904;49.152;11.004;2023-02-13T03:49:17;-0.40;99.90
9730;DHT22;4904;49.152;11.004;2023-02-13T03:52:05;-0.40;99.90
9730;DHT22;4904;49.152;11.004;2023-02-13T03:54:43;-0.40;99.90
9730;DHT22;4904;49.152;11.004;2023-02-13T03:57:31;-0.40;99.90
9730;DHT22;4904;49.152;11.004;2023-02-13T04:00:19;-0.50;99.90
9730;DHT22;4904;49.152;11.004;2023-02-13T04:02:52;-0.60;99.90
9730;DHT22;4904;49.152;11.004;2023-02-13T04:05:22;-0.60;99.90
9730;DHT22;4904;49.152;11.004;2023-02-13T04:07:50;-0.70;99.90
9730;DHT22;4904;49.152;11.004;2023-02-13T04:10:19;-0.60;99.90
9730;DHT22;4904;49.152;11.004;2023-02-13T04:12:51;-0.60;99.90
9730;DHT22;4904;49.152;11.004;2023-02-13T04:15:21;-0.60;99.90
9730;DHT22;4904;49.152;11.004;2023-02-13T04:17:52;-0.60;99.90
9730;DHT22;4904;49.152;11.004;2023-02-13T04:20:21;-0.70;99.90
9730;DHT22;4904;49.152;11.004;2023-02-13T04:22:51;-0.60;99.90
9730;DHT22;4904;49.152;11.004;2023-02-13T04:25:20;-0.60;99.90
9730;DHT22;4904;49.152;11.004;2023-02-13T04:27:47;-0.60;99.90
9730;DHT22;4904;49.152;11.004;2023-02-13T04:30:14;-0.60;99.90
9730;DHT22;4904;49.152;11.004;2023-02-13T04:32:41;-0.60;99.90
9730;DHT22;4904;49.152;11.004;2023-02-13T04:35:07;-0.60;99.90
9730;DHT22;4904;49.152;11.004;2023-02-13T04:37:36;-0.60;99.90
9730;DHT22;4904;49.152;11.004;2023-02-13T04:40:03;-0.60;99.90
9730;DHT22;4904;49.152;11.004;2023-02-13T04:42:31;-0.60;99.90
9730;DHT22;4904;49.152;11.004;2023-02-13T04:44:58;-0.50;99.90
9730;DHT22;4904;49.152;11.004;2023-02-13T04:47:25;-0.50;99.90
9730;DHT22;4904;49.152;11.004;2023-02-13T04:49:51;-0.60;99.90
9730;DHT22;4904;49.152;11.004;2023-02-13T04:52:18;-0.60;99.90
9730;DHT22;4904;49.152;11.004;2023-02-13T04:54:45;-0.50;99.90
9730;DHT22;4904;49.152;11.004;2023-02-13T04:57:12;-0.60;99.90
9730;DHT22;4904;49.152;11.004;2023-02-13T04:59:41;-0.60;99.90
9730;DHT22;4904;49.152;11.004;2023-02-13T05:02:08;-0.70;99.90
9730;DHT22;4904;49.152;11.004;2023-02-13T05:04:35;-0.80;99.90
9730;DHT22;4904;49.152;11.004;2023-02-13T05:07:02;-0.70;99.90
9730;DHT22;4904;49.152;11.004;2023-02-13T05:09:28;-0.60;99.90
9730;DHT22;4904;49.152;11.004;2023-02-13T05:11:56;-0.80;99.90
9730;DHT22;4904;49.152;11.004;2023-02-13T05:14:23;0.10;99.90
9730;DHT22;4904;49.152;11.004;2023-02-13T05:16:51;-0.80;99.90
9730;DHT22;4904;49.152;11.004;2023-02-13T05:19:18;-0.80;99.90
9730;DHT22;4904;49.152;11.004;2023-02-13T05:21:45;-0.90;99.90
9730;DHT22;4904;49.152;11.004;2023-02-13T05:24:30;-0.90;99.90
9730;DHT22;4904;49.152;11.004;2023-02-13T05:26:56;-0.90;99.90
9730;DHT22;4904;49.152;11.004;2023-02-13T05:29:23;-0.90;99.90
9730;DHT22;4904;49.152;11.004;2023-02-13T05:31:53;-0.90;99.90
9730;DHT22;4904;49.152;11.004;2023-02-13T05:34:21;-0.90;99.90
9730;DHT22;4904;49.152;11.004;2023-02-13T05:36:48;-1.00;99.90
9730;DHT22;4904;49.152;11.004;2023-02-13T05:39:15;-1.10;99.90
9730;DHT22;4904;49.152;11.004;2023-02-13T05:41:43;-1.10;99.90
9730;DHT22;4904;49.152;11.004;2023-02-13T05:44:11;-1.10;99.90
9730;DHT22;4904;49.152;11.004;2023-02-13T05:46:39;-1.10;99.90
9730;DHT22;4904;49.152;11.004;2023-02-13T05:49:08;-1.10;99.90
9730;DHT22;4904;49.152;11.004;2023-02-13T05:51:35;-1.10;99.90
9730;DHT22;4904;49.152;11.004;2023-02-13T05:54:03;-1.10;99.90
9730;DHT22;4904;49.152;11.004;2023-02-13T05:56:29;-1.10;99.90
9730;DHT22;4904;49.152;11.004;2023-02-13T05:58:56;-1.10;99.90
9730;DHT22;4904;49.152;11.004;2023-02-13T06:01:23;-1.10;99.90
9730;DHT22;4904;49.152;11.004;2023-02-13T06:03:51;-1.10;99.90
9730;DHT22;4904;49.152;11.004;2023-02-13T06:06:19;-1.00;99.90
9730;DHT22;4904;49.152;11.004;2023-02-13T06:08:47;-1.10;99.90
9730;DHT22;4904;49.152;11.004;2023-02-13T06:11:14;-1.10;99.90
9730;DHT22;4904;49.152;11.004;2023-02-13T06:13:41;-1.00;99.90
9730;DHT22;4904;49.152;11.004;2023-02-13T06:16:09;-1.10;99.90
9730;DHT22;4904;49.152;11.004;2023-02-13T06:18:36;-1.00;99.90
9730;DHT22;4904;49.152;11.004;2023-02-13T06:21:04;-1.00;99.90
9730;DHT22;4904;49.152;11.004;2023-02-13T06:23:33;-1.10;99.90
9730;DHT22;4904;49.152;11.004;2023-02-13T06:26:04;-1.10;99.90
9730;DHT22;4904;49.152;11.004;2023-02-13T06:28:31;-1.10;99.90
9730;DHT22;4904;49.152;11.004;2023-02-13T06:30:58;-1.20;99.90
9730;DHT22;4904;49.152;11.004;2023-02-13T06:33:25;-1.20;99.90
9730;DHT22;4904;49.152;11.004;2023-02-13T06:35:52;-1.20;99.90
9730;DHT22;4904;49.152;11.004;2023-02-13T06:38:19;-1.20;99.90
9730;DHT22;4904;49.152;11.004;2023-02-13T06:40:48;-1.30;99.90
9730;DHT22;4904;49.152;11.004;2023-02-13T06:43:15;-1.30;99.90
9730;DHT22;4904;49.152;11.004;2023-02-13T06:45:42;-1.30;99.90
9730;DHT22;4904;49.152;11.004;2023-02-13T06:48:11;-1.30;99.90
9730;DHT22;4904;49.152;11.004;2023-02-13T06:50:38;-1.20;99.90
9730;DHT22;4904;49.152;11.004;2023-02-13T06:53:07;-1.20;99.90
9730;DHT22;4904;49.152;11.004;2023-02-13T06:55:35;-1.10;99.90
9730;DHT22;4904;49.152;11.004;2023-02-13T06:58:05;-1.00;99.90
9730;DHT22;4904;49.152;11.004;2023-02-13T07:00:32;-0.90;99.90
9730;DHT22;4904;49.152;11.004;2023-02-13T07:03:01;-0.90;99.90
9730;DHT22;4904;49.152;11.004;2023-02-13T07:05:29;-0.90;99.90
9730;DHT22;4904;49.152;11.004;2023-02-13T07:07:56;-0.80;99.90
9730;DHT22;4904;49.152;11.004;2023-02-13T07:10:23;-0.70;99.90
9730;DHT22;4904;49.152;11.004;2023-02-13T07:12:50;-0.70;99.90
9730;DHT22;4904;49.152;11.004;2023-02-13T07:15:18;-0.50;99.90
9730;DHT22;4904;49.152;11.004;2023-02-13T07:17:45;-0.50;99.90
9730;DHT22;4904;49.152;11.004;2023-02-13T07:20:12;-0.40;99.90
9730;DHT22;4904;49.152;11.004;2023-02-13T07:22:39;-0.40;99.90
9730;DHT22;4904;49.152;11.004;2023-02-13T07:25:06;-0.40;99.90
9730;DHT22;4904;49.152;11.004;2023-02-13T07:27:33;-0.30;99.90
9730;DHT22;4904;49.152;11.004;2023-02-13T07:30:00;-0.30;99.90
9730;DHT22;4904;49.152;11.004;2023-02-13T07:32:29;-0.30;99.90
9730;DHT22;4904;49.152;11.004;2023-02-13T07:34:56;-0.30;99.90
9730;DHT22;4904;49.152;11.004;2023-02-13T07:37:23;-0.10;99.90
9730;DHT22;4904;49.152;11.004;2023-02-13T07:39:50;-0.20;99.90
9730;DHT22;4904;49.152;11.004;2023-02-13T07:42:17;-0.20;99.90
9730;DHT22;4904;49.152;11.004;2023-02-13T07:44:44;0.80;99.90
9730;DHT22;4904;49.152;11.004;2023-02-13T07:47:11;-0.20;99.90
9730;DHT22;4904;49.152;11.004;2023-02-13T07:49:39;-0.20;99.90
9730;DHT22;4904;49.152;11.004;2023-02-13T07:52:06;-0.20;99.90
9730;DHT22;4904;49.152;11.004;2023-02-13T07:54:33;-0.20;99.90
9730;DHT22;4904;49.152;11.004;2023-02-13T07:56:59;-0.30;99.90
9730;DHT22;4904;49.152;11.004;2023-02-13T07:59:26;-0.20;99.90
9730;DHT22;4904;49.152;11.004;2023-02-13T08:01:53;-0.10;99.90
9730;DHT22;4904;49.152;11.004;2023-02-13T08:04:20;-0.10;99.90
9730;DHT22;4904;49.152;11.004;2023-02-13T08:06:48;-0.10;99.90
9730;DHT22;4904;49.152;11.004;2023-02-13T08:09:18;0.00;99.90
9730;DHT22;4904;49.152;11.004;2023-02-13T08:12:05;0.10;99.90
9730;DHT22;4904;49.152;11.004;2023-02-13T08:14:32;0.10;99.90
9730;DHT22;4904;49.152;11.004;2023-02-13T08:17:00;0.10;99.90
9730;DHT22;4904;49.152;11.004;2023-02-13T08:19:27;0.20;99.90
9730;DHT22;4904;49.152;11.004;2023-02-13T08:21:55;0.40;99.90
9730;DHT22;4904;49.152;11.004;2023-02-13T08:24:22;0.40;99.90
9730;DHT22;4904;49.152;11.004;2023-02-13T08:26:49;0.00;99.90
9730;DHT22;4904;49.152;11.004;2023-02-13T08:29:16;0.10;99.90
9730;DHT22;4904;49.152;11.004;2023-02-13T08:31:43;0.00;99.90
9730;DHT22;4904;49.152;11.004;2023-02-13T08:34:10;0.80;99.90
9730;DHT22;4904;49.152;11.004;2023-02-13T08:36:37;0.10;99.90
9730;DHT22;4904;49.152;11.004;2023-02-13T08:39:05;0.30;99.90
9730;DHT22;4904;49.152;11.004;2023-02-13T08:41:32;0.40;99.90
9730;DHT22;4904;49.152;11.004;2023-02-13T08:44:00;0.60;99.90
9730;DHT22;4904;49.152;11.004;2023-02-13T08:46:27;0.70;99.90
9730;DHT22;4904;49.152;11.004;2023-02-13T08:48:58;0.90;99.90
9730;DHT22;4904;49.152;11.004;2023-02-13T08:51:27;1.00;99.90
9730;DHT22;4904;49.152;11.004;2023-02-13T08:53:54;1.10;99.90
9730;DHT22;4904;49.152;11.004;2023-02-13T08:56:23;1.20;99.90
9730;DHT22;4904;49.152;11.004;2023-02-13T08:58:50;1.40;99.90
9730;DHT22;4904;49.152;11.004;2023-02-13T09:01:17;1.40;99.90
9730;DHT22;4904;49.152;11.004;2023-02-13T09:03:44;1.40;99.90
9730;DHT22;4904;49.152;11.004;2023-02-13T09:06:12;1.40;99.90
9730;DHT22;4904;49.152;11.004;2023-02-13T09:08:39;1.50;99.90
9730;DHT22;4904;49.152;11.004;2023-02-13T09:11:06;1.60;99.90
9730;DHT22;4904;49.152;11.004;2023-02-13T09:13:35;1.60;99.90
9730;DHT22;4904;49.152;11.004;2023-02-13T09:16:03;1.70;99.90
9730;DHT22;4904;49.152;11.004;2023-02-13T09:18:31;1.70;99.90
9730;DHT22;4904;49.152;11.004;2023-02-13T09:20:59;1.80;99.90
9730;DHT22;4904;49.152;11.004;2023-02-13T09:23:29;1.70;99.90
9730;DHT22;4904;49.152;11.004;2023-02-13T09:25:58;1.50;99.90
9730;DHT22;4904;49.152;11.004;2023-02-13T09:28:25;1.60;99.90
9730;DHT22;4904;49.152;11.004;2023-02-13T09:30:56;1.70;99.90
9730;DHT22;4904;49.152;11.004;2023-02-13T09:33:23;1.70;99.90
9730;DHT22;4904;49.152;11.004;2023-02-13T09:35:50;1.80;99.90
9730;DHT22;4904;49.152;11.004;2023-02-13T09:38:17;1.90;99.90
9730;DHT22;4904;49.152;11.004;2023-02-13T09:40:47;1.90;99.90
9730;DHT22;4904;49.152;11.004;2023-02-13T09:43:20;2.00;99.90
9730;DHT22;4904;49.152;11.004;2023-02-13T09:45:49;2.10;99.90
9730;DHT22;4904;49.152;11.004;2023-02-13T09:48:28;2.20;99.90
9730;DHT22;4904;49.152;11.004;2023-02-13T09:50:56;2.30;99.90
9730;DHT22;4904;49.152;11.004;2023-02-13T09:53:25;2.20;99.90
9730;DHT22;4904;49.152;11.004;2023-02-13T09:56:03;2.30;99.90
9730;DHT22;4904;49.152;11.004;2023-02-13T09:58:39;2.30;99.90
9730;DHT22;4904;49.152;11.004;2023-02-13T10:01:19;2.40;99.90
9730;DHT22;4904;49.152;11.004;2023-02-13T10:03:55;2.50;99.90
9730;DHT22;4904;49.152;11.004;2023-02-13T10:06:29;2.50;99.90
9730;DHT22;4904;49.152;11.004;2023-02-13T10:09:04;2.50;99.90
9730;DHT22;4904;49.152;11.004;2023-02-13T10:14:29;2.60;99.90
9730;DHT22;4904;49.152;11.004;2023-02-13T10:17:00;2.80;99.90
9730;DHT22;4904;49.152;11.004;2023-02-13T10:19:34;3.00;99.90
9730;DHT22;4904;49.152;11.004;2023-02-13T10:22:09;2.90;99.90
9730;DHT22;4904;49.152;11.004;2023-02-13T10:24:41;3.10;99.90
9730;DHT22;4904;49.152;11.004;2023-02-13T11:01:24;4.00;99.90
9730;DHT22;4904;49.152;11.004;2023-02-13T11:04:06;3.90;99.90
9730;DHT22;4904;49.152;11.004;2023-02-13T11:06:37;4.00;99.90
9730;DHT22;4904;49.152;11.004;2023-02-13T11:12:41;4.20;99.90
9730;DHT22;4904;49.152;11.004;2023-02-13T11:15:23;4.40;99.90
9730;DHT22;4904;49.152;11.004;2023-02-13T11:17:53;4.40;99.90
9730;DHT22;4904;49.152;11.004;2023-02-13T11:20:36;4.50;99.90
9730;DHT22;4904;49.152;11.004;2023-02-13T12:03:26;6.10;99.90
9730;DHT22;4904;49.152;11.004;2023-02-13T12:05:59;6.30;99.90
9730;DHT22;4904;49.152;11.004;2023-02-13T12:08:27;6.40;99.90
9730;DHT22;4904;49.152;11.004;2023-02-13T12:10:56;6.50;99.90
9730;DHT22;4904;49.152;11.004;2023-02-13T12:13:28;6.80;99.90
9730;DHT22;4904;49.152;11.004;2023-02-13T12:15:59;6.90;99.90
9730;DHT22;4904;49.152;11.004;2023-02-13T12:18:30;7.00;99.90
9730;DHT22;4904;49.152;11.004;2023-02-13T12:21:04;7.20;99.90
9730;DHT22;4904;49.152;11.004;2023-02-13T12:23:42;7.40;99.90
9730;DHT22;4904;49.152;11.004;2023-02-13T12:26:19;7.60;99.90
9730;DHT22;4904;49.152;11.004;2023-02-13T12:32:00;7.90;99.90
9730;DHT22;4904;49.152;11.004;2023-02-13T12:35:11;8.10;99.90
9730;DHT22;4904;49.152;11.004;2023-02-13T12:37:51;8.10;99.90
9730;DHT22;4904;49.152;11.004;2023-02-13T12:40:38;8.20;99.90
9730;DHT22;4904;49.152;11.004;2023-02-13T12:43:24;8.20;99.90
9730;DHT22;4904;49.152;11.004;2023-02-13T12:45:58;8.30;99.90
9730;DHT22;4904;49.152;11.004;2023-02-13T12:48:34;8.50;99.90
9730;DHT22;4904;49.152;11.004;2023-02-13T12:51:16;8.60;99.90
9730;DHT22;4904;49.152;11.004;2023-02-13T12:53:59;8.60;99.90
9730;DHT22;4904;49.152;11.004;2023-02-13T12:56:40;8.70;99.90
9730;DHT22;4904;49.152;11.004;2023-02-13T12:59:16;8.60;99.90
9730;DHT22;4904;49.152;11.004;2023-02-13T13:02:03;8.60;99.90
9730;DHT22;4904;49.152;11.004;2023-02-13T13:04:41;8.50;99.90
9730;DHT22;4904;49.152;11.004;2023-02-13T13:07:29;8.60;99.90
9730;DHT22;4904;49.152;11.004;2023-02-13T13:10:22;8.50;99.90
9730;DHT22;4904;49.152;11.004;2023-02-13T13:12:57;8.40;99.90
9730;DHT22;4904;49.152;11.004;2023-02-13T13:15:33;8.40;99.90
9730;DHT22;4904;49.152;11.004;2023-02-13T13:18:11;8.40;99.90
9730;DHT22;4904;49.152;11.004;2023-02-13T13:20:54;8.50;99.90
9730;DHT22;4904;49.152;11.004;2023-02-13T13:23:28;8.50;99.90
9730;DHT22;4904;49.152;11.004;2023-02-13T13:26:04;8.50;99.90
9730;DHT22;4904;49.152;11.004;2023-02-13T13:28:36;8.60;99.90
9730;DHT22;4904;49.152;11.004;2023-02-13T13:31:04;8.60;99.90
9730;DHT22;4904;49.152;11.004;2023-02-13T13:33:32;8.70;99.90
9730;DHT22;4904;49.152;11.004;2023-02-13T13:36:03;8.70;99.90
9730;DHT22;4904;49.152;11.004;2023-02-13T13:38:52;8.70;99.90
9730;DHT22;4904;49.152;11.004;2023-02-13T13:41:29;8.80;99.90
9730;DHT22;4904;49.152;11.004;2023-02-13T13:46:53;9.00;99.90
9730;DHT22;4904;49.152;11.004;2023-02-13T13:49:33;9.00;99.90
9730;DHT22;4904;49.152;11.004;2023-02-13T13:52:26;9.00;99.90
9730;DHT22;4904;49.152;11.004;2023-02-13T13:54:56;9.00;99.90
9730;DHT22;4904;49.152;11.004;2023-02-13T13:57:25;9.10;99.90
9730;DHT22;4904;49.152;11.004;2023-02-13T14:00:21;9.10;99.90
9730;DHT22;4904;49.152;11.004;2023-02-13T14:02:51;9.10;99.90
9730;DHT22;4904;49.152;11.004;2023-02-13T14:06:05;9.30;99.90
9730;DHT22;4904;49.152;11.004;2023-02-13T14:09:06;9.50;99.90
9730;DHT22;4904;49.152;11.004;2023-02-13T14:11:37;9.60;99.90
9730;DHT22;4904;49.152;11.004;2023-02-13T14:17:14;9.50;99.90
9730;DHT22;4904;49.152;11.004;2023-02-13T14:19:48;9.60;99.90
9730;DHT22;4904;49.152;11.004;2023-02-13T14:22:32;9.60;99.90
9730;DHT22;4904;49.152;11.004;2023-02-13T14:25:02;9.80;99.90
9730;DHT22;4904;49.152;11.004;2023-02-13T14:27:32;10.00;99.90
9730;DHT22;4904;49.152;11.004;2023-02-13T14:30:03;10.20;99.90
9730;DHT22;4904;49.152;11.004;2023-02-13T14:32:31;10.40;99.90
9730;DHT22;4904;49.152;11.004;2023-02-13T14:35:01;10.50;99.90
9730;DHT22;4904;49.152;11.004;2023-02-13T14:37:34;10.60;99.90
9730;DHT22;4904;49.152;11.004;2023-02-13T14:43:28;10.90;99.90
9730;DHT22;4904;49.152;11.004;2023-02-13T14:46:01;11.10;99.90
9730;DHT22;4904;49.152;11.004;2023-02-13T14:48:35;11.20;99.90
9730;DHT22;4904;49.152;11.004;2023-02-13T14:51:06;11.40;99.90
9730;DHT22;4904;49.152;11.004;2023-02-13T14:53:50;11.60;99.90
9730;DHT22;4904;49.152;11.004;2023-02-13T14:56:21;12.20;99.90
9730;DHT22;4904;49.152;11.004;2023-02-13T14:58:52;12.80;99.90
9730;DHT22;4904;49.152;11.004;2023-02-13T15:01:27;13.20;99.90
9730;DHT22;4904;49.152;11.004;2023-02-13T15:03:58;13.50;99.90
9730;DHT22;4904;49.152;11.004;2023-02-13T15:06:33;14.00;99.90
9730;DHT22;4904;49.152;11.004;2023-02-13T15:09:03;14.30;99.90
9730;DHT22;4904;49.152;11.004;2023-02-13T15:11:35;14.50;99.90
9730;DHT22;4904;49.152;11.004;2023-02-13T15:14:24;14.80;99.90
9730;DHT22;4904;49.152;11.004;2023-02-13T15:16:55;14.80;99.90
9730;DHT22;4904;49.152;11.004;2023-02-13T15:19:23;14.80;99.90
9730;DHT22;4904;49.152;11.004;2023-02-13T15:21:54;14.80;99.90
9730;DHT22;4904;49.152;11.004;2023-02-13T15:24:22;14.90;99.90
9730;DHT22;4904;49.152;11.004;2023-02-13T15:26:55;14.90;99.90
9730;DHT22;4904;49.152;11.004;2023-02-13T15:29:25;14.90;99.90
9730;DHT22;4904;49.152;11.004;2023-02-13T15:31:52;14.90;99.90
9730;DHT22;4904;49.152;11.004;2023-02-13T15:34:22;15.00;99.90
9730;DHT22;4904;49.152;11.004;2023-02-13T15:36:51;15.00;99.90
9730;DHT22;4904;49.152;11.004;2023-02-13T15:39:26;14.90;99.90
9730;DHT22;4904;49.152;11.004;2023-02-13T15:41:55;14.80;99.90
9730;DHT22;4904;49.152;11.004;2023-02-13T15:44:26;14.80;99.90
9730;DHT22;4904;49.152;11.004;2023-02-13T15:47:01;14.80;99.90
9730;DHT22;4904;49.152;11.004;2023-02-13T15:49:36;14.70;99.90
9730;DHT22;4904;49.152;11.004;2023-02-13T15:54:47;14.40;99.90
9730;DHT22;4904;49.152;11.004;2023-02-13T15:57:15;14.40;99.90
9730;DHT22;4904;49.152;11.004;2023-02-13T15:59:45;14.20;99.90
9730;DHT22;4904;49.152;11.004;2023-02-13T16:02:15;14.10;99.90
9730;DHT22;4904;49.152;11.004;2023-02-13T16:04:45;13.90;99.90
9730;DHT22;4904;49.152;11.004;2023-02-13T16:07:13;13.80;99.90
9730;DHT22;4904;49.152;11.004;2023-02-13T16:09:40;13.60;99.90
9730;DHT22;4904;49.152;11.004;2023-02-13T16:12:26;13.40;99.90
9730;DHT22;4904;49.152;11.004;2023-02-13T16:14:56;13.10;99.90
9730;DHT22;4904;49.152;11.004;2023-02-13T16:17:27;12.70;99.90
9730;DHT22;4904;49.152;11.004;2023-02-13T16:19:58;12.30;99.90
9730;DHT22;4904;49.152;11.004;2023-02-13T16:22:32;11.90;99.90
9730;DHT22;4904;49.152;11.004;2023-02-13T16:25:17;11.50;99.90
9730;DHT22;4904;49.152;11.004;2023-02-13T16:27:46;10.80;99.90
9730;DHT22;4904;49.152;11.004;2023-02-13T16:30:27;10.30;99.90
9730;DHT22;4904;49.152;11.004;2023-02-13T16:33:20;10.00;99.90
9730;DHT22;4904;49.152;11.004;2023-02-13T16:35:48;9.50;99.90
9730;DHT22;4904;49.152;11.004;2023-02-13T16:38:29;9.00;99.90
9730;DHT22;4904;49.152;11.004;2023-02-13T16:40:58;8.60;99.90
9730;DHT22;4904;49.152;11.004;2023-02-13T16:43:42;8.50;99.90
9730;DHT22;4904;49.152;11.004;2023-02-13T16:46:19;8.30;99.90
9730;DHT22;4904;49.152;11.004;2023-02-13T16:49:01;8.30;99.90
9730;DHT22;4904;49.152;11.004;2023-02-13T16:51:33;8.10;99.90
9730;DHT22;4904;49.152;11.004;2023-02-13T16:54:03;8.00;99.90
9730;DHT22;4904;49.152;11.004;2023-02-13T16:56:38;7.80;99.90
9730;DHT22;4904;49.152;11.004;2023-02-13T16:59:20;7.60;99.90
9730;DHT22;4904;49.152;11.004;2023-02-13T17:02:02;7.60;99.90
9730;DHT22;4904;49.152;11.004;2023-02-13T17:04:29;7.60;99.90
9730;DHT22;4904;49.152;11.004;2023-02-13T17:06:56;7.50;99.90
9730;DHT22;4904;49.152;11.004;2023-02-13T17:09:23;7.50;99.90
9730;DHT22;4904;49.152;11.004;2023-02-13T17:11:51;7.40;99.90
9730;DHT22;4904;49.152;11.004;2023-02-13T17:14:20;7.30;99.90
9730;DHT22;4904;49.152;11.004;2023-02-13T17:16:49;7.20;99.90
9730;DHT22;4904;49.152;11.004;2023-02-13T17:19:16;7.00;99.90
9730;DHT22;4904;49.152;11.004;2023-02-13T17:21:44;6.90;99.90
9730;DHT22;4904;49.152;11.004;2023-02-13T17:24:16;6.80;99.90
9730;DHT22;4904;49.152;11.004;2023-02-13T17:26:43;6.50;99.90
9730;DHT22;4904;49.152;11.004;2023-02-13T17:29:11;6.30;99.90
9730;DHT22;4904;49.152;11.004;2023-02-13T17:31:38;6.10;99.90
9730;DHT22;4904;49.152;11.004;2023-02-13T17:34:10;5.80;99.90
9730;DHT22;4904;49.152;11.004;2023-02-13T17:36:37;5.80;99.90
9730;DHT22;4904;49.152;11.004;2023-02-13T17:39:04;5.60;99.90
9730;DHT22;4904;49.152;11.004;2023-02-13T17:41:31;5.60;99.90
9730;DHT22;4904;49.152;11.004;2023-02-13T17:43:57;5.50;99.90
9730;DHT22;4904;49.152;11.004;2023-02-13T17:46:24;5.40;99.90
9730;DHT22;4904;49.152;11.004;2023-02-13T17:48:55;5.10;99.90
9730;DHT22;4904;49.152;11.004;2023-02-13T17:51:23;4.90;99.90
9730;DHT22;4904;49.152;11.004;2023-02-13T17:53:53;4.90;99.90
9730;DHT22;4904;49.152;11.004;2023-02-13T17:56:21;4.80;99.90
9730;DHT22;4904;49.152;11.004;2023-02-13T17:58:48;4.90;99.90
9730;DHT22;4904;49.152;11.004;2023-02-13T18:01:16;4.90;99.90
9730;DHT22;4904;49.152;11.004;2023-02-13T18:03:43;4.80;99.90
9730;DHT22;4904;49.152;11.004;2023-02-13T18:06:11;4.70;99.90